Weather observations for the past three days for
Beaumont Municipal Airport
Metric (Imperial)
Date Time (cdt) Wind (kph) Vis. (km) Weather Sky Cond. Temperature (ºC) Relative Humidity Wind Chill (°C) Heat Index (°C) Pressure Precipitation (cm)
Air Dwpt 6 hour altimeter (cm) sea level (mb) 1 hr 3 hr 6 hr
Max. Min.
02 15:35 N 24 G 31 16.09 Fair CLR 23.4 5.5 31% 76.35 0.0
02 15:15 NE 13 G 30 16.09 Fair CLR 22.7 5.2 32% 76.38 0.0
02 14:55 N 15 G 28 16.09 Fair CLR 22.9 5 31% 76.4 0.0
02 14:35 N 22 G 33 16.09 Fair CLR 22.7 6.3 35% 76.4 0.0
02 14:15 NE 22 G 28 16.09 Fair CLR 22.4 6 35% 76.4 0.0
02 13:55 N 20 G 31 16.09 Fair CLR 22.1 5.6 34% 76.43 0.0
02 13:35 N 22 G 31 16.09 Fair CLR 21.8 6.7 38% 76.45 0.0
02 13:15 NE 22 G 33 16.09 Fair CLR 21.5 6.5 38% 76.45 0.0
02 12:55 NE 24 G 37 16.09 Fair CLR 21.3 6.5 21.3 10 38% 76.48 0.0
02 12:35 NE 22 G 31 16.09 Fair CLR 20.7 6.8 41% 76.48 0.0
02 12:15 N 20 G 37 16.09 Fair CLR 20.5 7.7 44% 76.48 0.0
02 11:55 NE 20 G 37 16.09 Fair CLR 20.4 8.3 46% 76.5 0.0
02 11:35 N 22 G 37 16.09 Fair CLR 19.8 8.9 50% 76.5 0.0
02 11:15 N 22 G 31 16.09 Fair CLR 19.3 8.1 48% 76.5 0.0
02 10:55 NE 22 G 30 16.09 Fair CLR 18.8 8.3 51% 76.5 0.0
02 10:35 N 19 16.09 Fair CLR 18.1 9.3 57% 76.5 0.0
02 10:15 N 19 G 26 16.09 Fair CLR 17.9 10.7 63% 76.48 0.0
02 09:55 N 20 G 30 16.09 Fair CLR 16.9 10.2 65% 76.48 0.0
02 09:35 N 20 G 28 16.09 Fair CLR 16.4 10.9 70% 76.48 0.0
02 09:15 N 22 16.09 Fair CLR 15.6 11 74% 76.45 0.0
02 08:55 N 17 G 30 16.09 Fair CLR 15 11 77% 76.43 0.0
02 08:35 N 13 16.09 Partly Cloudy SCT007 SCT012 13.8 11.2 84% 76.4 0.0
02 08:15 N 13 16.09 Partly Cloudy SCT007 12.7 10.8 88% 76.4 0.0
02 07:55 N 13 16.09 Partly Cloudy SCT005 11.8 10.4 91% 76.4 0.0
02 07:35 N 9 16.09 Fair CLR 11 10 94% 76.38 0.0
02 07:15 N 7 16.09 Fair CLR 10.4 9.5 94% 76.35 0.0
02 06:55 N 7 16.09 Fair CLR 10 9.1 11.5 10 94% 9 76.33 0.0
02 06:35 N 7 16.09 Fair CLR 10 9.1 94% 9 76.3 0.0
02 06:15 N 11 16.09 Fair CLR 10.1 9.1 94% 76.28 0.0
02 05:55 N 11 16.09 Fair CLR 10 9.1 94% 9 76.28 0.0
02 05:35 N 11 16.09 Fair CLR 10 9 94% 9 76.25 0.0
02 05:15 N 9 16.09 Fair CLR 10.2 8.9 92% 76.23 0.0
02 04:55 N 11 16.09 Fair CLR 10.1 9 93% 76.2 0.0
02 04:35 N 11 16.09 Fair CLR 10.2 9 92% 76.2 0.0
02 04:15 N 9 16.09 Fair CLR 10.1 9 93% 76.2 0.0
02 03:55 N 9 16.09 Fair CLR 10.1 9 93% 76.17 0.0
02 03:35 N 9 16.09 Fair CLR 10.2 9 92% 76.17 0.0
02 03:15 N 13 16.09 Partly Cloudy SCT060 10.5 9 91% 76.17 0.0
02 02:55 N 13 16.09 Overcast OVC060 10.8 9.1 89% 76.17 0.0
02 02:35 NE 13 16.09 Mostly Cloudy SCT011 BKN050 BKN060 10.7 9.1 90% 76.15 0.0
02 02:15 NE 13 16.09 Overcast SCT011 OVC048 11 9.1 88% 76.15 0.0
02 01:35 NE 22 G 30 16.09 Overcast BKN013 OVC046 11.2 9.3 88% 76.17 0.0
02 01:15 NE 15 G 30 16.09 Overcast OVC011 11.3 9.5 89% 76.2 0.0
02 00:55 N 17 G 30 16.09 Overcast OVC009 11.5 10 13.8 11.5 91% 76.2 0.0
02 00:35 N 20 G 30 16.09 Overcast OVC009 11.5 10.2 92% 76.2 0.0
02 00:15 N 19 G 33 16.09 Overcast OVC009 11.5 10.2 92% 76.2 0.0
01 23:55 N 19 G 30 16.09 Overcast OVC009 11.6 10.5 93% 76.2 0.0
01 23:35 N 19 G 33 16.09 Light Rain OVC007 11.7 10.7 94% 76.15 0.0
01 23:15 N 20 G 30 16.09 Rain OVC010 11.9 10.9 94% 76.07 0.0
01 22:55 N 20 G 31 16.09 Light Rain OVC008 12 11 94% 76.1 0.0
01 22:35 N 19 16.09 Rain OVC008 12.1 11.1 94% 76.12 0.0
01 22:15 N 17 16.09 Light Drizzle OVC008 12.2 11.1 93% 76.1 0.0
01 21:55 N 15 16.09 Rain OVC008 12.3 11.2 93% 76.07 0.0
01 21:35 NE 15 16.09 Light Rain OVC008 12.4 11.3 93% 76.07 0.0
01 21:15 N 13 G 19 16.09 Light Drizzle OVC008 12.5 11.5 94% 76.02 0.0
01 20:55 N 24 G 33 16.09 Light Rain BKN008 BKN013 OVC055 12.5 11.5 94% 75.92 0.0
01 20:35 NE 20 16.09 Light Rain SCT008 BKN015 OVC090 12.6 11.6 94% 75.87 0.0
01 20:15 N 20 G 28 16.09 Light Rain BKN008 BKN020 OVC075 12.9 12 94% 75.84 0.0
01 19:55 N 22 G 30 8.05 Rain BKN008 BKN022 OVC036 13.1 12.1 94% 75.87 0.0
01 19:35 N 26 G 35 16.09 Rain OVC008 13.5 12.5 94% 75.9 0.0
01 19:15 N 24 G 33 16.09 Light Rain OVC006 13.6 12.6 94% 75.82 0.0
01 18:55 NE 20 G 28 16.09 Rain OVC006 13.8 13 15.6 13.8 95% 75.84 0.0
01 18:35 NE 17 11.27 Rain OVC006 14.1 13.2 94% 75.84 0.0
01 18:15 N 13 8.05 Heavy Rain OVC006 14.2 13.3 94% 75.9 0.0
01 17:55 N 11 11.27 Rain OVC004 14.1 13.3 95% 75.9 0.0
01 17:35 NE 19 G 26 8.05 Thunderstorm Rain OVC004 14.1 13.3 95% 75.77 0.0
01 17:15 E 13 6.44 Heavy Rain OVC008 14.1 13.3 95% 75.84 0.0
01 16:55 N 15 6.44 Thunderstorm Heavy Rain in Vicinity OVC007 14.3 13.5 95% 75.9 0.0
01 16:35 NE 6 8.05 Thunderstorm Rain in Vicinity OVC007 14.5 13.5 94% 75.9 0.0
01 16:15 NE 11 11.27 Thunderstorm Heavy Rain in Vicinity OVC007 14.5 13.5 94% 75.79 0.0
01 15:55 NE 9 11.27 Thunderstorm Rain in Vicinity OVC007 14.5 13.5 94% 75.77 0.0
01 15:35 E 11 G 31 11.27 Thunderstorm Rain in Vicinity BKN007 OVC022 14.6 13.7 94% 75.69 0.0
01 15:15 NE 17 4.83 Thunderstorm Heavy Rain OVC007 14.7 13.6 93% 75.77 0.0
01 14:55 N 13 G 30 16.09 Thunderstorm Light Rain in Vicinity OVC007 15.1 13.9 93% 75.84 0.0
01 14:35 NE 20 G 30 16.09 Thunderstorm Light Rain in Vicinity OVC007 15.1 14 93% 75.64 0.0
01 14:15 NE 17 G 28 16.09 Light Drizzle OVC007 15.3 14 92% 75.77 0.0
01 13:55 NE 26 G 35 16.09 Light Rain OVC007 15.6 14.4 93% 75.79 0.0
01 13:35 NE 15 16.09 Thunderstorm Light Rain in Vicinity OVC007 15.5 14.5 94% 75.82 0.0
01 13:15 NE 20 G 33 16.09 Thunderstorm Light Rain OVC007 15.2 14.2 94% 75.79 0.0
01 12:55 N 15 11.27 Thunderstorm Rain in Vicinity OVC005 15.3 14.3 16.8 15.3 94% 75.87 0.0
01 12:35 N 22 G 30 11.27 Thunderstorm Light Rain in Vicinity OVC005 15.5 14.5 94% 75.82 0.0
01 12:15 N 17 G 30 3.22 Thunderstorm Heavy Rain OVC005 15.5 14.5 94% 75.87 0.0
01 11:55 N 26 G 37 16.09 Light Rain OVC007 16 14.7 92% 75.87 0.0
01 11:35 NE 22 G 31 16.09 Overcast OVC007 16.2 15 93% 75.87 0.0
01 11:15 NE 22 G 35 16.09 Overcast OVC007 16.7 15.3 92% 75.84 0.0
01 10:55 NE 20 16.09 Light Rain OVC007 16.4 15.2 93% 75.87 0.0
01 10:35 N 19 16.09 Light Rain OVC007 16.1 15 93% 75.95 0.0
01 10:15 NE 13 16.09 Rain OVC007 15.8 14.7 93% 75.97 0.0
01 09:55 NE 17 G 28 16.09 Light Rain OVC007 15.8 14.8 94% 75.95 0.0
01 09:35 N 20 16.09 Thunderstorm Light Rain in Vicinity OVC007 16 15 94% 75.9 0.0
01 09:15 N 17 16.09 Rain BKN007 BKN028 OVC080 16 15 94% 75.95 0.0
01 08:55 NE 17 16.09 Overcast BKN007 BKN045 OVC100 16.1 15.1 94% 75.92 0.0
01 08:35 N 17 6.44 Thunderstorm Light Rain BKN005 OVC010 16.1 15.1 94% 75.97 0.0
01 08:15 E 6 G 28 16.09 Light Rain OVC005 16.5 15.5 94% 76 0.0
01 07:55 NE 17 G 28 8.05 Rain OVC005 16.6 15.6 94% 75.9 0.0
01 07:35 NE 11 16.09 Overcast OVC005 16.7 15.7 94% 75.87 0.0
01 07:15 N 17 G 26 16.09 Overcast OVC005 16.7 15.8 94% 75.84 0.0
01 06:55 NE 20 16.09 Light Rain OVC005 16.7 15.9 18.3 16.7 95% 75.82 0.0
01 06:35 NE 17 16.09 Rain OVC005 16.8 16 95% 75.84 0.0
01 06:15 N 11 4.83 Heavy Rain BKN005 BKN028 OVC048 17 16 94% 75.9 0.0
01 05:55 N 11 11.27 Thunderstorm Heavy Rain in Vicinity SCT005 BKN046 OVC075 17.1 16 93% 75.95 0.0
01 05:35 NE 20 G 33 16.09 Thunderstorm Rain in Vicinity BKN005 OVC075 17 16.1 94% 75.82 0.0
01 05:15 N 19 G 30 16.09 Rain OVC005 17.2 16.2 94% 75.9 0.0
01 04:55 NW 11 16.09 Light Rain OVC005 17.3 16.4 94% 75.87 0.0
01 04:35 NE 15 16.09 Overcast OVC005 17.5 16.5 94% 75.79 0.0
01 04:15 N 11 16.09 Light Drizzle BKN005 OVC023 17.5 16.6 95% 75.77 0.0
01 03:55 NE 11 16.09 Light Rain BKN005 BKN023 OVC044 17.6 16.6 94% 75.74 0.0
01 03:35 E 7 16.09 Overcast BKN005 OVC080 17.6 16.6 94% 75.74 0.0
01 03:15 NE 11 16.09 Overcast BKN005 OVC080 17.7 16.7 94% 75.79 0.0
01 02:55 NE 9 16.09 Overcast SCT005 SCT065 OVC075 17.7 16.7 94% 75.82 0.0
01 02:35 E 9 16.09 Overcast SCT005 SCT055 OVC075 17.7 16.7 94% 75.84 0.0
01 02:15 NE 11 16.09 Light Drizzle BKN005 OVC055 17.7 16.7 94% 75.92 0.0
01 01:55 N 15 16.09 Light Rain BKN005 BKN021 OVC033 17.7 16.7 94% 75.97 0.0
01 01:35 N 9 6.44 Thunderstorm Light Rain in Vicinity BKN007 BKN021 OVC040 17.8 16.7 93% 75.9 0.0
01 01:15 N 13 16.09 Thunderstorm Rain OVC007 18.2 16.7 91% 76 0.0
01 00:55 NE 17 16.09 Overcast OVC007 18.3 16.7 21 18.3 90% 75.87 0.0
01 00:35 NE 9 16.09 Overcast OVC007 18.5 16.7 89% 75.92 0.0
01 00:15 E 19 G 33 16.09 Overcast OVC007 18.3 16.6 90% 75.79 0.0
30 23:55 NE 17 16.09 Overcast OVC007 18.5 16.7 89% 75.9 0.0
30 23:35 NE 19 G 26 16.09 Overcast OVC009 18.5 16.9 90% 75.92 0.0
30 23:15 NE 15 16.09 Overcast OVC009 18.7 17 90% 75.95 0.0
30 22:55 NE 11 16.09 Overcast OVC009 18.7 17 90% 75.95 0.0
30 22:35 E 11 16.09 Overcast OVC009 18.8 17 89% 75.92 0.0
30 22:15 NE 9 16.09 Overcast BKN011 OVC090 19 17.2 89% 75.9 0.0
30 21:55 NE 9 16.09 Overcast SCT011 OVC090 19.3 17.5 89% 75.87 0.0
30 21:35 NE 13 16.09 Light Rain SCT013 SCT060 OVC090 19.6 17.4 87% 75.87 0.0
30 21:15 E 9 16.09 Light Rain BKN013 BKN060 OVC090 20 17.2 84% 75.87 0.0
30 20:55 NE 11 16.09 Overcast BKN013 OVC100 20.1 17.2 84% 75.84 0.0
30 20:35 NE 9 16.09 Overcast BKN013 OVC050 20.2 17.2 83% 75.82 0.0
30 20:15 NE 11 16.09 Overcast SCT013 BKN049 OVC100 20.5 17.3 82% 75.82 0.0
30 19:55 NE 9 16.09 Mostly Cloudy SCT013 SCT047 BKN100 20.5 17.2 81% 75.79 0.0
30 19:35 NE 15 16.09 Mostly Cloudy SCT013 BKN047 BKN065 20.6 17.3 81% 75.77 0.0
30 19:15 NE 13 16.09 Overcast OVC013 20.7 17.5 82% 75.77 0.0
30 18:55 NE 19 16.09 Overcast OVC013 21 17.5 30.2 21 81% 75.77 0.0
30 18:35 NE 22 G 31 16.09 Overcast OVC015 21.3 17.5 79% 75.74 0.0
30 18:15 NE 15 16.09 Overcast OVC015 22 17.8 77% 75.69 0.0
30 17:55 NE 17 16.09 Mostly Cloudy BKN015 BKN040 BKN047 22 17.7 77% 75.69 0.0
30 17:35 NE 20 G 28 16.09 Partly Cloudy SCT040 SCT070 22 17.6 76% 75.67 0.0
30 17:15 NE 19 G 33 16.09 Mostly Cloudy SCT050 BKN070 22 17.6 76% 75.69 0.0
30 16:55 NE 20 16.09 Overcast SCT033 BKN042 OVC050 22.2 18.1 78% 75.74 0.0
30 16:35 NE 15 16.09 Overcast SCT027 SCT033 OVC042 22.4 18.3 78% 75.72 0.0
30 16:15 N 17 G 28 16.09 Overcast SCT012 BKN023 OVC029 22.5 18.2 77% 75.74 0.0
30 15:55 N 19 G 31 16.09 Light Drizzle OVC012 21.8 19 84% 75.77 0.0
30 15:35 N 24 G 46 16.09 Light Rain BKN012 OVC020 22.6 19.5 83% 75.77 0.0
30 15:15 N 41 G 48 16.09 Overcast and Breezy SCT018 BKN042 OVC048 26.8 21.3 72% 29 75.67 0.0
30 14:55 N 6 16.09 Mostly Cloudy BKN042 BKN048 BKN060 28.9 19 55% 30 75.72 0.0
30 14:35 S 7 16.09 Mostly Cloudy SCT042 BKN050 BKN060 29.8 19.1 53% 31 75.72 0.0
30 14:15 W 7 16.09 Partly Cloudy SCT041 SCT047 SCT050 29.8 19.2 53% 31 75.72 0.0
30 13:55 SW 9 16.09 Mostly Cloudy SCT041 BKN049 BKN055 29.7 18.8 52% 31 75.72 0.0
30 13:35 SW 7 16.09 Mostly Cloudy BKN038 BKN049 29.1 18.7 53% 30 75.72 0.0
30 13:15 Calm 16.09 Mostly Cloudy BKN038 BKN049 28.5 18.9 56% 30 75.72 0.0
30 12:55 Calm 8.05 Partly Cloudy with Haze SCT036 28.6 19.1 28.7 21.2 56% 30 75.74 0.0
30 12:35 SE 6 16.09 Mostly Cloudy BKN036 28.2 19.2 58% 30 75.77 0.0
30 12:15 SW 7 16.09 Partly Cloudy SCT034 27.9 19 58% 29 75.79 0.0
30 11:55 SE 7 16.09 Partly Cloudy SCT042 28 19.1 58% 29 75.77 0.0
30 11:35 SW 7 16.09 Mostly Cloudy SCT032 BKN042 27.4 18.8 59% 29 75.79 0.0
30 10:55 Calm 16.09 Mostly Cloudy BKN030 BKN042 27.3 18.7 59% 28 75.84 0.0
30 10:35 SW 9 16.09 Partly Cloudy SCT032 SCT040 SCT085 27.3 19.3 62% 29 75.82 0.0
30 10:15 Calm 16.09 Partly Cloudy SCT030 SCT085 26.7 19.8 66% 28 75.82 0.0
30 09:55 Calm 16.09 Partly Cloudy SCT018 SCT023 SCT030 26 20.5 72% 27 75.82 0.0
30 09:35 Calm 16.09 Partly Cloudy SCT018 SCT023 25.9 21 74% 27 75.79 0.0
30 09:15 Calm 16.09 Fair CLR 25.4 21.1 77% 27 75.77 0.0
30 08:55 NE 6 11.27 Fair CLR 24.2 21.7 86% 24 75.79 0.0
30 08:35 Calm 11.27 Partly Cloudy SCT055 SCT070 SCT080 23.5 21.5 89% 75.79 0.0
30 08:15 Calm 11.27 Partly Cloudy SCT055 SCT070 SCT080 23.1 21.5 91% 75.79 0.0
30 07:55 Calm 8.05 Fog/Mist BKN070 BKN080 22.2 21.1 94% 75.79 0.0
30 07:35 Calm 6.44 Fog/Mist BKN070 22 21 94% 75.79 0.0
30 07:15 Calm 6.44 Fog/Mist CLR 21.6 20.7 95% 75.77 0.0
30 06:55 Calm 6.44 Fog/Mist CLR 21.5 20.3 22.5 21.3 93% 75.77 0.0
30 06:35 Calm 8.05 Fog/Mist CLR 21.6 20.6 94% 75.74 0.0
30 06:15 Calm 8.05 Fog/Mist CLR 21.4 20.2 93% 75.72 0.0
30 05:55 Calm 8.05 Fog/Mist CLR 21.9 20.6 92% 75.77 0.0
30 05:35 Calm 8.05 Fog/Mist CLR 21.7 20.5 93% 75.69 0.0
30 05:15 S 6 8.05 Fog/Mist CLR 21.8 20.6 93% 75.74 0.0
30 04:55 Calm 8.05 Fog/Mist CLR 21.8 20.6 93% 75.74 0.0
30 04:35 SE 7 8.05 Fog/Mist SCT070 SCT090 21.7 20.5 93% 75.74 0.0
30 04:15 Calm 8.05 Fog/Mist SCT048 BKN080 BKN100 22.1 20.8 92% 75.79 0.0
30 03:55 S 6 8.05 Fog/Mist BKN046 BKN075 22.1 20.7 92% 75.77 0.0
30 03:35 Calm 11.27 Mostly Cloudy BKN046 22.1 20.6 91% 75.79 0.0
30 03:15 Calm 11.27 Fair CLR 22 20.5 91% 75.77 0.0
30 02:55 Calm 11.27 Partly Cloudy SCT046 21.9 20.5 92% 75.74 0.0
30 02:35 SE 6 11.27 Partly Cloudy SCT046 22 20.5 91% 75.77 0.0
30 02:15 S 6 11.27 Partly Cloudy SCT046 22.3 20.6 90% 75.82 0.0
30 01:55 SE 6 11.27 Fair CLR 22.2 20.6 91% 75.82 0.0
30 01:35 SE 7 16.09 Partly Cloudy SCT080 22.2 20.6 91% 75.82 0.0
30 01:15 SE 9 11.27 Mostly Cloudy BKN080 22.4 20.7 90% 75.87 0.0
30 00:55 Calm 11.27 Overcast OVC080 22.5 20.7 26 22.4 90% 75.9 0.0
30 00:35 S 6 11.27 Overcast OVC080 22.6 20.7 89% 75.9 0.0
30 00:15 SE 7 16.09 Mostly Cloudy BKN080 22.5 20.6 89% 75.87 0.0
29 23:55 Calm 11.27 Partly Cloudy SCT080 22.5 20.6 89% 75.9 0.0
29 23:35 S 7 11.27 Fair CLR 22.5 20.6 89% 75.82 0.0
29 23:15 S 7 11.27 Partly Cloudy SCT090 22.5 20.7 90% 75.84 0.0
29 22:55 Calm 11.27 Overcast OVC090 23 20.8 87% 75.92 0.0
29 22:35 Calm 11.27 Overcast OVC090 23 20.7 87% 75.9 0.0
29 22:15 S 6 11.27 Thunderstorm in Vicinity OVC090 23.1 20.8 87% 75.9 0.0
29 21:55 SE 7 16.09 Overcast OVC090 23 20.6 86% 75.82 0.0
29 21:35 S 9 11.27 Overcast OVC090 23 20.5 86% 75.79 0.0
29 21:15 S 6 16.09 Overcast OVC090 23.1 20.5 85% 75.82 0.0
29 20:55 S 6 11.27 Overcast OVC090 23.1 20.4 85% 75.82 0.0
29 20:35 S 6 16.09 Overcast OVC090 23.1 20.1 83% 75.79 0.0
29 20:15 S 7 11.27 Mostly Cloudy BKN090 23.5 20 81% 75.74 0.0
29 19:55 S 9 11.27 Partly Cloudy SCT090 24.1 19.9 77% 25 75.74 0.0
29 19:35 S 9 16.09 Fair CLR 24.6 19.8 75% 25 75.72 0.0
29 19:15 S 11 16.09 Fair CLR 25.3 19.9 72% 26 75.74 0.0
29 18:55 S 15 16.09 Fair CLR 26 19.7 29 26 68% 27 75.72 0.0
29 18:35 S 17 16.09 Fair CLR 26.5 19.3 65% 28 75.67 0.0
29 18:15 S 13 16.09 Fair CLR 26.7 19.2 64% 28 75.69 0.0
29 17:55 S 17 16.09 Partly Cloudy SCT031 27.4 19.6 62% 29 75.77 0.0
29 17:35 S 13 16.09 Partly Cloudy SCT031 27.9 19.8 61% 29 75.77 0.0
29 17:15 S 11 16.09 Partly Cloudy SCT033 27.8 19.8 62% 29 75.77 0.0
29 16:55 S 17 16.09 Fair CLR 28 19.7 61% 30 75.77 0.0
29 16:35 S 19 G 26 16.09 Partly Cloudy SCT031 SCT038 28.5 20.1 60% 30 75.77 0.0
29 16:15 S 19 16.09 Mostly Cloudy BKN033 BKN041 28.2 20 61% 30 75.77 0.0
Date Time (cdt) Wind (kph) Vis. (km) Weather Sky Cond. Air Dwpt Max. Min. Relative Humidity Wind Chill (°C) Heat Index (°C) altimeter (cm) sea level (mb) 1 hr 3 hr 6 hr
6 hour
Temperature (ºC) Pressure Precipitation (cm)